sensor_id;sensor_type;location;lat;lon;timestamp;pressure;altitude;pressure_sealevel;temperature;humidity
77013;BME280;67260;53.130;17.982;2024-01-11T00:00:49;102251.52;;;-3.69;86.45
77013;BME280;67260;53.130;17.982;2024-01-11T00:03:36;102263.96;;;-3.65;86.78
77013;BME280;67260;53.130;17.982;2024-01-11T00:06:02;102265.08;;;-3.59;86.69
77013;BME280;67260;53.130;17.982;2024-01-11T00:08:30;102258.59;;;-3.57;86.66
77013;BME280;67260;53.130;17.982;2024-01-11T00:10:56;102247.13;;;-3.54;86.58
77013;BME280;67260;53.130;17.982;2024-01-11T00:13:30;102250.77;;;-3.54;86.49
77013;BME280;67260;53.130;17.982;2024-01-11T00:15:57;102246.45;;;-3.54;86.50
77013;BME280;67260;53.130;17.982;2024-01-11T00:18:23;102234.64;;;-3.53;86.69
77013;BME280;67260;53.130;17.982;2024-01-11T00:20:49;102224.68;;;-3.52;86.89
77013;BME280;67260;53.130;17.982;2024-01-11T00:23:15;102239.86;;;-3.50;86.69
77013;BME280;67260;53.130;17.982;2024-01-11T00:25:41;102231.31;;;-3.46;86.86
77013;BME280;67260;53.130;17.982;2024-01-11T00:28:07;102219.96;;;-3.41;86.91
77013;BME280;67260;53.130;17.982;2024-01-11T00:30:34;102225.15;;;-3.37;86.64
77013;BME280;67260;53.130;17.982;2024-01-11T00:33:00;102231.60;;;-3.38;86.83
77013;BME280;67260;53.130;17.982;2024-01-11T00:35:36;102231.89;;;-3.37;87.04
77013;BME280;67260;53.130;17.982;2024-01-11T00:38:36;102212.84;;;-3.34;86.73
77013;BME280;67260;53.130;17.982;2024-01-11T00:41:03;102199.16;;;-3.34;86.68
77013;BME280;67260;53.130;17.982;2024-01-11T00:43:50;102193.02;;;-3.36;86.70
77013;BME280;67260;53.130;17.982;2024-01-11T00:46:21;102173.98;;;-3.39;86.87
77013;BME280;67260;53.130;17.982;2024-01-11T00:48:48;102166.46;;;-3.41;86.87
77013;BME280;67260;53.130;17.982;2024-01-11T00:51:15;102170.25;;;-3.41;87.32
77013;BME280;67260;53.130;17.982;2024-01-11T00:53:42;102176.52;;;-3.38;87.40
77013;BME280;67260;53.130;17.982;2024-01-11T00:56:18;102182.33;;;-3.36;87.03
77013;BME280;67260;53.130;17.982;2024-01-11T00:58:46;102189.67;;;-3.35;87.06
77013;BME280;67260;53.130;17.982;2024-01-11T01:01:13;102189.91;;;-3.36;86.93
77013;BME280;67260;53.130;17.982;2024-01-11T01:03:39;102178.88;;;-3.37;87.00
77013;BME280;67260;53.130;17.982;2024-01-11T01:06:05;102177.50;;;-3.37;87.07
77013;BME280;67260;53.130;17.982;2024-01-11T01:08:33;102176.43;;;-3.36;87.11
77013;BME280;67260;53.130;17.982;2024-01-11T01:11:01;102189.34;;;-3.35;87.14
77013;BME280;67260;53.130;17.982;2024-01-11T01:13:27;102197.92;;;-3.34;87.27
77013;BME280;67260;53.130;17.982;2024-01-11T01:15:53;102188.80;;;-3.32;87.38
77013;BME280;67260;53.130;17.982;2024-01-11T01:18:22;102192.40;;;-3.31;87.43
77013;BME280;67260;53.130;17.982;2024-01-11T01:20:48;102185.83;;;-3.31;87.39
77013;BME280;67260;53.130;17.982;2024-01-11T01:23:14;102176.36;;;-3.32;87.69
77013;BME280;67260;53.130;17.982;2024-01-11T01:25:41;102172.09;;;-3.36;87.56
77013;BME280;67260;53.130;17.982;2024-01-11T01:28:09;102184.22;;;-3.36;87.70
77013;BME280;67260;53.130;17.982;2024-01-11T01:30:36;102194.91;;;-3.36;87.51
77013;BME280;67260;53.130;17.982;2024-01-11T01:33:02;102202.17;;;-3.32;87.51
77013;BME280;67260;53.130;17.982;2024-01-11T01:35:28;102185.66;;;-3.31;87.85
77013;BME280;67260;53.130;17.982;2024-01-11T01:37:55;102175.16;;;-3.32;87.50
77013;BME280;67260;53.130;17.982;2024-01-11T01:40:21;102174.84;;;-3.33;87.82
77013;BME280;67260;53.130;17.982;2024-01-11T01:42:48;102185.60;;;-3.29;87.85
77013;BME280;67260;53.130;17.982;2024-01-11T01:45:15;102192.11;;;-3.25;87.81
77013;BME280;67260;53.130;17.982;2024-01-11T01:47:42;102197.02;;;-3.20;88.15
77013;BME280;67260;53.130;17.982;2024-01-11T01:50:10;102193.11;;;-3.18;87.63
77013;BME280;67260;53.130;17.982;2024-01-11T01:52:37;102191.57;;;-3.15;87.74
77013;BME280;67260;53.130;17.982;2024-01-11T01:55:06;102200.96;;;-3.12;87.70
77013;BME280;67260;53.130;17.982;2024-01-11T01:57:35;102201.84;;;-3.10;87.59
77013;BME280;67260;53.130;17.982;2024-01-11T02:00:02;102209.17;;;-3.08;87.59
77013;BME280;67260;53.130;17.982;2024-01-11T02:02:39;102215.45;;;-3.05;87.58
77013;BME280;67260;53.130;17.982;2024-01-11T02:05:07;102206.65;;;-3.03;87.37
77013;BME280;67260;53.130;17.982;2024-01-11T02:07:33;102200.59;;;-3.00;87.63
77013;BME280;67260;53.130;17.982;2024-01-11T02:10:00;102198.71;;;-2.97;87.52
77013;BME280;67260;53.130;17.982;2024-01-11T02:12:27;102208.33;;;-2.95;87.46
77013;BME280;67260;53.130;17.982;2024-01-11T02:14:53;102202.17;;;-2.93;87.73
77013;BME280;67260;53.130;17.982;2024-01-11T02:17:20;102201.52;;;-2.91;87.55
77013;BME280;67260;53.130;17.982;2024-01-11T02:23:06;102192.27;;;-2.83;87.87
77013;BME280;67260;53.130;17.982;2024-01-11T02:25:55;102198.77;;;-2.79;87.80
77013;BME280;67260;53.130;17.982;2024-01-11T02:39:52;102164.96;;;-2.54;87.96
77013;BME280;67260;53.130;17.982;2024-01-11T02:42:35;102156.24;;;-2.50;88.38
77013;BME280;67260;53.130;17.982;2024-01-11T02:45:10;102160.80;;;-2.42;88.35
77013;BME280;67260;53.130;17.982;2024-01-11T02:53:07;102155.09;;;-2.24;88.48
77013;BME280;67260;53.130;17.982;2024-01-11T02:55:33;102155.21;;;-2.17;88.57
77013;BME280;67260;53.130;17.982;2024-01-11T02:58:07;102145.73;;;-2.13;88.45
77013;BME280;67260;53.130;17.982;2024-01-11T03:00:56;102141.70;;;-2.07;88.13
77013;BME280;67260;53.130;17.982;2024-01-11T03:03:22;102138.55;;;-2.03;88.01
77013;BME280;67260;53.130;17.982;2024-01-11T03:05:57;102127.02;;;-1.99;88.22
77013;BME280;67260;53.130;17.982;2024-01-11T03:09:10;102124.24;;;-1.96;88.30
77013;BME280;67260;53.130;17.982;2024-01-11T03:11:54;102124.59;;;-1.93;88.23
77013;BME280;67260;53.130;17.982;2024-01-11T03:14:52;102127.56;;;-1.91;88.20
77013;BME280;67260;53.130;17.982;2024-01-11T03:17:33;102108.70;;;-1.89;88.14
77013;BME280;67260;53.130;17.982;2024-01-11T03:20:04;102095.42;;;-1.87;88.25
77013;BME280;67260;53.130;17.982;2024-01-11T03:22:55;102087.70;;;-1.86;88.41
77013;BME280;67260;53.130;17.982;2024-01-11T03:25:21;102084.28;;;-1.84;88.45
77013;BME280;67260;53.130;17.982;2024-01-11T03:27:47;102071.17;;;-1.83;88.34
77013;BME280;67260;53.130;17.982;2024-01-11T03:30:13;102075.02;;;-1.80;88.48
77013;BME280;67260;53.130;17.982;2024-01-11T03:32:40;102076.84;;;-1.79;88.46
77013;BME280;67260;53.130;17.982;2024-01-11T03:35:07;102086.25;;;-1.77;88.40
77013;BME280;67260;53.130;17.982;2024-01-11T03:37:33;102081.98;;;-1.75;88.38
77013;BME280;67260;53.130;17.982;2024-01-11T03:40:00;102080.74;;;-1.75;88.43
77013;BME280;67260;53.130;17.982;2024-01-11T03:42:26;102090.06;;;-1.74;88.44
77013;BME280;67260;53.130;17.982;2024-01-11T03:44:52;102088.74;;;-1.72;88.14
77013;BME280;67260;53.130;17.982;2024-01-11T03:47:18;102086.44;;;-1.71;88.16
77013;BME280;67260;53.130;17.982;2024-01-11T03:49:45;102085.10;;;-1.69;88.41
77013;BME280;67260;53.130;17.982;2024-01-11T03:52:11;102077.17;;;-1.67;88.18
77013;BME280;67260;53.130;17.982;2024-01-11T03:54:37;102067.90;;;-1.67;88.43
77013;BME280;67260;53.130;17.982;2024-01-11T03:57:03;102050.09;;;-1.65;88.35
77013;BME280;67260;53.130;17.982;2024-01-11T03:59:29;102046.59;;;-1.64;88.41
77013;BME280;67260;53.130;17.982;2024-01-11T04:01:57;102043.19;;;-1.62;88.49
77013;BME280;67260;53.130;17.982;2024-01-11T04:04:24;102044.52;;;-1.62;88.43
77013;BME280;67260;53.130;17.982;2024-01-11T04:06:52;102041.89;;;-1.61;88.51
77013;BME280;67260;53.130;17.982;2024-01-11T04:09:19;102030.51;;;-1.60;88.36
77013;BME280;67260;53.130;17.982;2024-01-11T04:11:46;102012.23;;;-1.59;88.48
77013;BME280;67260;53.130;17.982;2024-01-11T04:14:15;102003.64;;;-1.58;88.43
77013;BME280;67260;53.130;17.982;2024-01-11T04:16:41;101997.88;;;-1.57;88.56
77013;BME280;67260;53.130;17.982;2024-01-11T04:19:08;101989.02;;;-1.57;88.61
77013;BME280;67260;53.130;17.982;2024-01-11T04:21:34;101982.23;;;-1.57;88.54
77013;BME280;67260;53.130;17.982;2024-01-11T04:24:00;101983.46;;;-1.58;88.65
77013;BME280;67260;53.130;17.982;2024-01-11T04:26:26;101992.64;;;-1.57;88.48
77013;BME280;67260;53.130;17.982;2024-01-11T04:28:53;102001.91;;;-1.55;88.59
77013;BME280;67260;53.130;17.982;2024-01-11T04:31:21;102001.96;;;-1.53;88.66
77013;BME280;67260;53.130;17.982;2024-01-11T04:33:47;101998.49;;;-1.51;88.46
77013;BME280;67260;53.130;17.982;2024-01-11T04:36:13;102001.17;;;-1.49;88.37
77013;BME280;67260;53.130;17.982;2024-01-11T04:38:39;101984.37;;;-1.47;88.67
77013;BME280;67260;53.130;17.982;2024-01-11T04:41:09;101977.67;;;-1.46;88.35
77013;BME280;67260;53.130;17.982;2024-01-11T04:43:38;101973.87;;;-1.43;88.56
77013;BME280;67260;53.130;17.982;2024-01-11T04:46:18;101982.86;;;-1.43;88.36
77013;BME280;67260;53.130;17.982;2024-01-11T04:48:49;101992.11;;;-1.41;88.55
77013;BME280;67260;53.130;17.982;2024-01-11T04:51:17;101991.92;;;-1.38;88.63
77013;BME280;67260;53.130;17.982;2024-01-11T04:53:44;101998.69;;;-1.35;88.44
77013;BME280;67260;53.130;17.982;2024-01-11T04:56:13;101986.99;;;-1.34;88.42
77013;BME280;67260;53.130;17.982;2024-01-11T04:58:41;101980.98;;;-1.30;88.31
77013;BME280;67260;53.130;17.982;2024-01-11T05:01:14;101976.02;;;-1.28;88.28
77013;BME280;67260;53.130;17.982;2024-01-11T05:03:44;101984.70;;;-1.25;88.28
77013;BME280;67260;53.130;17.982;2024-01-11T05:06:18;101979.81;;;-1.22;88.47
77013;BME280;67260;53.130;17.982;2024-01-11T05:08:52;101990.69;;;-1.21;88.39
77013;BME280;67260;53.130;17.982;2024-01-11T05:11:44;101989.87;;;-1.17;88.27
77013;BME280;67260;53.130;17.982;2024-01-11T05:14:10;101987.96;;;-1.14;88.47
77013;BME280;67260;53.130;17.982;2024-01-11T05:16:36;101979.88;;;-1.13;88.24
77013;BME280;67260;53.130;17.982;2024-01-11T05:19:02;101972.20;;;-1.12;88.58
77013;BME280;67260;53.130;17.982;2024-01-11T05:21:28;101970.69;;;-1.10;88.45
77013;BME280;67260;53.130;17.982;2024-01-11T05:23:55;101974.81;;;-1.10;88.33
77013;BME280;67260;53.130;17.982;2024-01-11T05:26:21;101980.14;;;-1.06;88.36
77013;BME280;67260;53.130;17.982;2024-01-11T05:28:47;101974.91;;;-1.06;88.28
77013;BME280;67260;53.130;17.982;2024-01-11T05:31:14;101976.73;;;-1.05;87.90
77013;BME280;67260;53.130;17.982;2024-01-11T05:33:43;101984.05;;;-1.03;88.21
77013;BME280;67260;53.130;17.982;2024-01-11T05:36:09;101964.55;;;-1.00;88.31
77013;BME280;67260;53.130;17.982;2024-01-11T05:38:35;101975.48;;;-0.96;88.42
77013;BME280;67260;53.130;17.982;2024-01-11T05:41:04;101980.56;;;-0.94;88.16
77013;BME280;67260;53.130;17.982;2024-01-11T05:43:30;101980.68;;;-0.94;88.20
77013;BME280;67260;53.130;17.982;2024-01-11T05:46:01;101981.73;;;-0.94;88.38
77013;BME280;67260;53.130;17.982;2024-01-11T05:48:33;101977.83;;;-0.93;88.44
77013;BME280;67260;53.130;17.982;2024-01-11T05:50:59;101968.56;;;-0.92;87.92
77013;BME280;67260;53.130;17.982;2024-01-11T05:53:26;101978.45;;;-0.92;87.96
77013;BME280;67260;53.130;17.982;2024-01-11T05:55:53;101963.41;;;-0.90;88.16
77013;BME280;67260;53.130;17.982;2024-01-11T05:58:19;101959.36;;;-0.89;88.02
77013;BME280;67260;53.130;17.982;2024-01-11T06:00:47;101952.25;;;-0.90;88.10
77013;BME280;67260;53.130;17.982;2024-01-11T06:03:17;101946.34;;;-0.90;88.44
77013;BME280;67260;53.130;17.982;2024-01-11T06:05:44;101944.20;;;-0.89;88.06
77013;BME280;67260;53.130;17.982;2024-01-11T06:08:11;101943.30;;;-0.89;88.04
77013;BME280;67260;53.130;17.982;2024-01-11T06:10:37;101940.69;;;-0.89;88.19
77013;BME280;67260;53.130;17.982;2024-01-11T06:13:03;101944.28;;;-0.87;88.07
77013;BME280;67260;53.130;17.982;2024-01-11T06:15:29;101946.30;;;-0.89;88.18
77013;BME280;67260;53.130;17.982;2024-01-11T06:17:57;101942.86;;;-0.90;88.07
77013;BME280;67260;53.130;17.982;2024-01-11T06:20:27;101941.16;;;-0.91;88.08
77013;BME280;67260;53.130;17.982;2024-01-11T06:22:53;101937.70;;;-0.91;88.27
77013;BME280;67260;53.130;17.982;2024-01-11T06:25:19;101937.94;;;-0.92;88.36
77013;BME280;67260;53.130;17.982;2024-01-11T06:27:46;101939.80;;;-0.91;88.45
77013;BME280;67260;53.130;17.982;2024-01-11T06:30:13;101938.31;;;-0.89;88.44
77013;BME280;67260;53.130;17.982;2024-01-11T06:32:39;101938.90;;;-0.88;88.29
77013;BME280;67260;53.130;17.982;2024-01-11T06:35:06;101937.94;;;-0.86;88.37
77013;BME280;67260;53.130;17.982;2024-01-11T06:37:35;101946.42;;;-0.86;88.07
77013;BME280;67260;53.130;17.982;2024-01-11T06:40:02;101949.27;;;-0.84;88.18
77013;BME280;67260;53.130;17.982;2024-01-11T06:42:30;101938.07;;;-0.83;88.25
77013;BME280;67260;53.130;17.982;2024-01-11T06:44:56;101939.27;;;-0.83;88.11
77013;BME280;67260;53.130;17.982;2024-01-11T06:47:22;101937.03;;;-0.81;88.10
77013;BME280;67260;53.130;17.982;2024-01-11T06:49:48;101931.89;;;-0.79;88.27
77013;BME280;67260;53.130;17.982;2024-01-11T06:52:14;101932.25;;;-0.79;88.25
77013;BME280;67260;53.130;17.982;2024-01-11T06:54:40;101935.17;;;-0.79;88.21
77013;BME280;67260;53.130;17.982;2024-01-11T06:57:07;101927.86;;;-0.79;88.15
77013;BME280;67260;53.130;17.982;2024-01-11T06:59:33;101924.09;;;-0.80;88.15
77013;BME280;67260;53.130;17.982;2024-01-11T07:01:59;101929.85;;;-0.80;88.19
77013;BME280;67260;53.130;17.982;2024-01-11T07:04:25;101926.73;;;-0.80;88.30
77013;BME280;67260;53.130;17.982;2024-01-11T07:06:52;101928.54;;;-0.81;88.62
77013;BME280;67260;53.130;17.982;2024-01-11T07:09:18;101924.09;;;-0.80;88.53
77013;BME280;67260;53.130;17.982;2024-01-11T07:11:44;101934.36;;;-0.77;88.23
77013;BME280;67260;53.130;17.982;2024-01-11T07:14:11;101930.75;;;-0.76;88.39
77013;BME280;67260;53.130;17.982;2024-01-11T07:16:42;101933.15;;;-0.75;88.43
77013;BME280;67260;53.130;17.982;2024-01-11T07:19:11;101942.90;;;-0.73;88.34
77013;BME280;67260;53.130;17.982;2024-01-11T07:21:37;101941.27;;;-0.69;88.42
77013;BME280;67260;53.130;17.982;2024-01-11T07:24:03;101933.38;;;-0.68;88.10
77013;BME280;67260;53.130;17.982;2024-01-11T07:26:30;101931.09;;;-0.68;88.18
77013;BME280;67260;53.130;17.982;2024-01-11T07:28:57;101935.39;;;-0.67;88.06
77013;BME280;67260;53.130;17.982;2024-01-11T07:31:24;101929.55;;;-0.66;88.20
77013;BME280;67260;53.130;17.982;2024-01-11T07:33:52;101914.79;;;-0.63;88.11
77013;BME280;67260;53.130;17.982;2024-01-11T07:36:19;101913.83;;;-0.61;88.32
77013;BME280;67260;53.130;17.982;2024-01-11T07:38:45;101914.99;;;-0.61;88.34
77013;BME280;67260;53.130;17.982;2024-01-11T07:41:15;101903.09;;;-0.60;88.21
77013;BME280;67260;53.130;17.982;2024-01-11T07:43:41;101898.96;;;-0.63;88.18
77013;BME280;67260;53.130;17.982;2024-01-11T07:46:07;101900.11;;;-0.60;88.50
77013;BME280;67260;53.130;17.982;2024-01-11T07:48:34;101907.23;;;-0.57;88.34
77013;BME280;67260;53.130;17.982;2024-01-11T07:51:01;101902.22;;;-0.55;88.54
77013;BME280;67260;53.130;17.982;2024-01-11T07:53:28;101909.66;;;-0.52;88.49
77013;BME280;67260;53.130;17.982;2024-01-11T07:55:54;101907.11;;;-0.51;88.41
77013;BME280;67260;53.130;17.982;2024-01-11T07:58:20;101906.97;;;-0.48;88.19
77013;BME280;67260;53.130;17.982;2024-01-11T08:00:47;101907.20;;;-0.47;88.39
77013;BME280;67260;53.130;17.982;2024-01-11T08:03:14;101911.70;;;-0.44;88.53
77013;BME280;67260;53.130;17.982;2024-01-11T08:05:41;101913.10;;;-0.41;88.08
77013;BME280;67260;53.130;17.982;2024-01-11T08:08:08;101916.90;;;-0.39;88.10
77013;BME280;67260;53.130;17.982;2024-01-11T08:10:35;101914.24;;;-0.35;88.15
77013;BME280;67260;53.130;17.982;2024-01-11T08:13:03;101919.45;;;-0.33;88.14
77013;BME280;67260;53.130;17.982;2024-01-11T08:15:30;101921.82;;;-0.32;88.30
77013;BME280;67260;53.130;17.982;2024-01-11T08:17:56;101924.82;;;-0.27;88.47
77013;BME280;67260;53.130;17.982;2024-01-11T08:20:22;101924.11;;;-0.25;88.35
77013;BME280;67260;53.130;17.982;2024-01-11T08:22:48;101923.48;;;-0.21;88.03
77013;BME280;67260;53.130;17.982;2024-01-11T08:25:14;101928.86;;;-0.18;88.06
77013;BME280;67260;53.130;17.982;2024-01-11T08:27:42;101936.66;;;-0.12;88.04
77013;BME280;67260;53.130;17.982;2024-01-11T08:30:09;101940.41;;;-0.09;88.41
77013;BME280;67260;53.130;17.982;2024-01-11T08:32:35;101933.39;;;-0.06;88.15
77013;BME280;67260;53.130;17.982;2024-01-11T08:35:05;101919.36;;;-0.02;88.11
77013;BME280;67260;53.130;17.982;2024-01-11T08:37:32;101912.73;;;0.01;88.31
77013;BME280;67260;53.130;17.982;2024-01-11T08:39:59;101919.57;;;0.03;88.02
77013;BME280;67260;53.130;17.982;2024-01-11T08:42:24;101924.11;;;0.07;88.31
77013;BME280;67260;53.130;17.982;2024-01-11T08:44:50;101921.85;;;0.10;88.19
77013;BME280;67260;53.130;17.982;2024-01-11T08:47:19;101924.41;;;0.13;88.28
77013;BME280;67260;53.130;17.982;2024-01-11T08:49:45;101927.11;;;0.16;88.23
77013;BME280;67260;53.130;17.982;2024-01-11T08:52:11;101923.64;;;0.18;88.13
77013;BME280;67260;53.130;17.982;2024-01-11T08:54:39;101925.34;;;0.21;88.15
77013;BME280;67260;53.130;17.982;2024-01-11T08:57:06;101935.19;;;0.25;88.04
77013;BME280;67260;53.130;17.982;2024-01-11T08:59:33;101940.25;;;0.27;87.93
77013;BME280;67260;53.130;17.982;2024-01-11T09:01:59;101943.37;;;0.30;87.88
77013;BME280;67260;53.130;17.982;2024-01-11T09:04:25;101944.03;;;0.33;87.97
77013;BME280;67260;53.130;17.982;2024-01-11T09:06:54;101948.73;;;0.36;87.91
77013;BME280;67260;53.130;17.982;2024-01-11T09:09:21;101954.84;;;0.37;87.86
77013;BME280;67260;53.130;17.982;2024-01-11T09:11:47;101959.43;;;0.42;87.99
77013;BME280;67260;53.130;17.982;2024-01-11T09:14:13;101959.34;;;0.46;88.04
77013;BME280;67260;53.130;17.982;2024-01-11T09:16:39;101960.09;;;0.49;87.75
77013;BME280;67260;53.130;17.982;2024-01-11T09:19:06;101960.87;;;0.53;87.61
77013;BME280;67260;53.130;17.982;2024-01-11T09:21:32;101954.65;;;0.54;87.46
77013;BME280;67260;53.130;17.982;2024-01-11T09:23:58;101955.55;;;0.56;87.54
77013;BME280;67260;53.130;17.982;2024-01-11T09:26:24;101954.70;;;0.58;87.88
77013;BME280;67260;53.130;17.982;2024-01-11T09:28:51;101957.23;;;0.60;87.61
77013;BME280;67260;53.130;17.982;2024-01-11T09:31:17;101958.31;;;0.64;87.86
77013;BME280;67260;53.130;17.982;2024-01-11T09:33:43;101953.34;;;0.68;87.79
77013;BME280;67260;53.130;17.982;2024-01-11T09:36:14;101949.69;;;0.70;87.35
77013;BME280;67260;53.130;17.982;2024-01-11T09:38:40;101953.71;;;0.72;87.55
77013;BME280;67260;53.130;17.982;2024-01-11T09:41:08;101953.97;;;0.78;87.54
77013;BME280;67260;53.130;17.982;2024-01-11T09:43:35;101949.88;;;0.81;87.55
77013;BME280;67260;53.130;17.982;2024-01-11T09:46:05;101949.81;;;0.87;87.36
77013;BME280;67260;53.130;17.982;2024-01-11T09:48:36;101945.63;;;0.89;87.39
77013;BME280;67260;53.130;17.982;2024-01-11T09:51:07;101943.48;;;0.92;87.41
77013;BME280;67260;53.130;17.982;2024-01-11T09:53:35;101947.19;;;0.94;87.34
77013;BME280;67260;53.130;17.982;2024-01-11T09:56:07;101948.14;;;0.95;86.89
77013;BME280;67260;53.130;17.982;2024-01-11T09:58:36;101940.60;;;0.96;87.00
77013;BME280;67260;53.130;17.982;2024-01-11T10:01:03;101938.86;;;0.98;87.15
77013;BME280;67260;53.130;17.982;2024-01-11T10:03:33;101937.88;;;1.02;86.87
77013;BME280;67260;53.130;17.982;2024-01-11T10:06:00;101938.23;;;1.11;87.12
77013;BME280;67260;53.130;17.982;2024-01-11T10:08:28;101935.00;;;1.21;87.01
77013;BME280;67260;53.130;17.982;2024-01-11T10:10:55;101930.68;;;1.30;86.69
77013;BME280;67260;53.130;17.982;2024-01-11T10:13:28;101936.48;;;1.41;86.50
77013;BME280;67260;53.130;17.982;2024-01-11T10:16:05;101938.29;;;1.51;86.74
77013;BME280;67260;53.130;17.982;2024-01-11T10:18:31;101942.29;;;1.60;86.33
77013;BME280;67260;53.130;17.982;2024-01-11T10:20:58;101935.21;;;1.64;86.00
77013;BME280;67260;53.130;17.982;2024-01-11T10:23:25;101933.29;;;1.66;86.15
77013;BME280;67260;53.130;17.982;2024-01-11T10:25:51;101938.48;;;1.69;86.09
77013;BME280;67260;53.130;17.982;2024-01-11T10:28:17;101937.52;;;1.73;85.96
77013;BME280;67260;53.130;17.982;2024-01-11T10:30:50;101930.70;;;1.73;85.92
77013;BME280;67260;53.130;17.982;2024-01-11T10:33:19;101932.24;;;1.73;85.79
77013;BME280;67260;53.130;17.982;2024-01-11T10:35:45;101932.71;;;1.74;85.89
77013;BME280;67260;53.130;17.982;2024-01-11T10:38:13;101922.30;;;1.71;85.76
77013;BME280;67260;53.130;17.982;2024-01-11T10:40:41;101922.55;;;1.70;86.04
77013;BME280;67260;53.130;17.982;2024-01-11T10:43:09;101921.15;;;1.65;85.93
77013;BME280;67260;53.130;17.982;2024-01-11T10:45:40;101916.45;;;1.58;85.91
77013;BME280;67260;53.130;17.982;2024-01-11T10:48:15;101916.42;;;1.54;85.73
77013;BME280;67260;53.130;17.982;2024-01-11T10:50:45;101918.50;;;1.50;85.72
77013;BME280;67260;53.130;17.982;2024-01-11T10:53:25;101914.42;;;1.48;85.68
77013;BME280;67260;53.130;17.982;2024-01-11T10:55:55;101921.02;;;1.51;85.76
77013;BME280;67260;53.130;17.982;2024-01-11T10:58:24;101932.21;;;1.55;85.92
77013;BME280;67260;53.130;17.982;2024-01-11T11:00:53;101934.48;;;1.59;86.08
77013;BME280;67260;53.130;17.982;2024-01-11T11:03:23;101931.50;;;1.67;86.13
77013;BME280;67260;53.130;17.982;2024-01-11T11:05:53;101924.60;;;1.70;85.95
77013;BME280;67260;53.130;17.982;2024-01-11T11:08:19;101926.60;;;1.74;85.76
77013;BME280;67260;53.130;17.982;2024-01-11T11:10:46;101920.92;;;1.77;85.45
77013;BME280;67260;53.130;17.982;2024-01-11T11:13:14;101919.98;;;1.80;85.40
77013;BME280;67260;53.130;17.982;2024-01-11T11:15:45;101921.73;;;1.84;85.52
77013;BME280;67260;53.130;17.982;2024-01-11T11:18:16;101914.45;;;1.86;85.33
77013;BME280;67260;53.130;17.982;2024-01-11T11:20:45;101909.42;;;1.87;85.17
77013;BME280;67260;53.130;17.982;2024-01-11T11:23:15;101897.05;;;1.87;85.15
77013;BME280;67260;53.130;17.982;2024-01-11T11:25:48;101901.63;;;1.87;85.25
77013;BME280;67260;53.130;17.982;2024-01-11T11:28:18;101895.33;;;1.83;85.01
77013;BME280;67260;53.130;17.982;2024-01-11T11:30:49;101885.80;;;1.82;85.08
77013;BME280;67260;53.130;17.982;2024-01-11T11:33:44;101887.30;;;1.85;85.49
77013;BME280;67260;53.130;17.982;2024-01-11T11:36:28;101889.81;;;1.88;85.30
77013;BME280;67260;53.130;17.982;2024-01-11T11:39:18;101893.64;;;1.90;84.99
77013;BME280;67260;53.130;17.982;2024-01-11T11:41:47;101889.63;;;1.91;84.93
77013;BME280;67260;53.130;17.982;2024-01-11T11:44:15;101885.83;;;1.92;84.90
77013;BME280;67260;53.130;17.982;2024-01-11T11:46:47;101881.37;;;1.93;84.88
77013;BME280;67260;53.130;17.982;2024-01-11T11:49:14;101876.45;;;1.91;84.64
77013;BME280;67260;53.130;17.982;2024-01-11T11:51:40;101882.48;;;1.90;84.75
77013;BME280;67260;53.130;17.982;2024-01-11T11:54:09;101885.64;;;1.92;85.18
77013;BME280;67260;53.130;17.982;2024-01-11T11:56:37;101880.06;;;1.92;85.04
77013;BME280;67260;53.130;17.982;2024-01-11T11:59:10;101874.11;;;1.92;84.82
77013;BME280;67260;53.130;17.982;2024-01-11T12:04:51;101873.56;;;1.92;84.63
77013;BME280;67260;53.130;17.982;2024-01-11T12:07:21;101865.51;;;1.95;84.81
77013;BME280;67260;53.130;17.982;2024-01-11T12:09:50;101868.29;;;1.98;84.66
77013;BME280;67260;53.130;17.982;2024-01-11T12:12:16;101867.61;;;1.99;84.59
77013;BME280;67260;53.130;17.982;2024-01-11T12:14:47;101857.77;;;2.05;84.56
77013;BME280;67260;53.130;17.982;2024-01-11T12:17:15;101854.55;;;2.13;84.59
77013;BME280;67260;53.130;17.982;2024-01-11T12:19:44;101844.63;;;2.22;84.33
77013;BME280;67260;53.130;17.982;2024-01-11T12:22:13;101842.61;;;2.29;84.34
77013;BME280;67260;53.130;17.982;2024-01-11T12:24:39;101842.08;;;2.34;84.03
77013;BME280;67260;53.130;17.982;2024-01-11T12:27:05;101840.92;;;2.35;83.92
77013;BME280;67260;53.130;17.982;2024-01-11T12:29:31;101838.20;;;2.36;84.31
77013;BME280;67260;53.130;17.982;2024-01-11T12:31:58;101833.21;;;2.37;83.78
77013;BME280;67260;53.130;17.982;2024-01-11T12:34:49;101828.85;;;2.37;83.85
77013;BME280;67260;53.130;17.982;2024-01-11T12:37:15;101824.95;;;2.40;84.00
77013;BME280;67260;53.130;17.982;2024-01-11T12:39:41;101823.23;;;2.44;83.69
77013;BME280;67260;53.130;17.982;2024-01-11T12:42:09;101826.44;;;2.53;84.00
77013;BME280;67260;53.130;17.982;2024-01-11T12:44:35;101830.41;;;2.60;83.58
77013;BME280;67260;53.130;17.982;2024-01-11T12:47:03;101837.91;;;2.62;83.53
77013;BME280;67260;53.130;17.982;2024-01-11T12:49:43;101845.91;;;2.65;83.45
77013;BME280;67260;53.130;17.982;2024-01-11T12:52:18;101852.01;;;2.70;83.30
77013;BME280;67260;53.130;17.982;2024-01-11T12:54:45;101856.45;;;2.67;83.23
77013;BME280;67260;53.130;17.982;2024-01-11T12:57:21;101854.27;;;2.66;83.39
77013;BME280;67260;53.130;17.982;2024-01-11T12:59:47;101855.84;;;2.64;83.15
77013;BME280;67260;53.130;17.982;2024-01-11T13:02:15;101851.72;;;2.63;83.18
77013;BME280;67260;53.130;17.982;2024-01-11T13:04:43;101847.92;;;2.62;83.35
77013;BME280;67260;53.130;17.982;2024-01-11T13:07:12;101847.56;;;2.58;82.94
77013;BME280;67260;53.130;17.982;2024-01-11T13:09:41;101851.70;;;2.52;83.20
77013;BME280;67260;53.130;17.982;2024-01-11T13:12:07;101856.36;;;2.49;83.24
77013;BME280;67260;53.130;17.982;2024-01-11T13:14:34;101859.15;;;2.43;83.34